Time;durP1;ratioP1;P1;durP2;ratioP2;P2;SDS_P1;SDS_P2;PMS_P1;PMS_P2;Temp;Humidity;BMP_temperature;BMP_pressure;BME280_temperature;BME280_humidity;BME280_pressure;Samples;Min_cycle;Max_cycle;Signal;HPM_P1;HPM_P2
2021/10/29 00:00:44;;;;;;;45.93;39.33;;;7.00;99.90;;;;;;6299682;28;20473;-66
2021/10/29 00:03:47;;;;;;;46.80;38.80;;;6.90;99.90;;;;;;6299386;28;20991;-66
2021/10/29 00:06:52;;;;;;;49.27;39.47;;;6.90;99.90;;;;;;6299470;28;20492;-65
2021/10/29 00:09:55;;;;;;;44.27;36.47;;;6.90;99.90;;;;;;6299824;28;20571;-65
2021/10/29 00:12:58;;;;;;;45.63;38.93;;;6.90;99.90;;;;;;6276070;28;20498;-65
2021/10/29 00:16:02;;;;;;;45.80;38.40;;;6.90;99.90;;;;;;6274551;28;20541;-66
2021/10/29 00:19:05;;;;;;;52.43;39.67;;;6.80;99.90;;;;;;6274716;28;20474;-64
2021/10/29 00:22:10;;;;;;;47.13;38.40;;;6.80;99.90;;;;;;6274412;28;20470;-65
2021/10/29 00:25:13;;;;;;;48.30;39.47;;;6.80;99.90;;;;;;6274294;28;20954;-65
2021/10/29 00:28:16;;;;;;;43.93;37.73;;;6.80;99.90;;;;;;6274186;28;20469;-67
2021/10/29 00:31:20;;;;;;;43.80;38.33;;;6.80;99.90;;;;;;6274008;28;20973;-66
2021/10/29 00:34:23;;;;;;;49.77;39.37;;;6.80;99.90;;;;;;6273962;28;20620;-66
2021/10/29 00:37:30;;;;;;;53.97;40.40;;;6.70;99.90;;;;;;6274176;28;20473;-65
2021/10/29 00:40:35;;;;;;;51.43;42.57;;;6.70;99.90;;;;;;6262536;28;20475;-65
2021/10/29 00:43:38;;;;;;;49.20;41.30;;;6.70;99.90;;;;;;6248892;28;20498;-66
2021/10/29 00:46:41;;;;;;;47.90;39.27;;;6.70;99.90;;;;;;6248094;28;20478;-66
2021/10/29 00:49:44;;;;;;;45.40;39.07;;;6.70;99.90;;;;;;6248417;28;20475;-65
2021/10/29 00:52:49;;;;;;;44.40;39.43;;;6.70;99.90;;;;;;6253059;28;21002;-65
2021/10/29 00:55:52;;;;;;;47.20;38.70;;;6.70;99.90;;;;;;6253125;28;21036;-65
2021/10/29 00:58:55;;;;;;;46.70;37.77;;;6.60;99.90;;;;;;6271354;28;20478;-66
2021/10/29 01:01:59;;;;;;;41.70;37.30;;;6.70;99.90;;;;;;6276036;28;20962;-66
2021/10/29 01:05:04;;;;;;;50.70;37.97;;;6.60;99.90;;;;;;6275967;28;21005;-66
2021/10/29 01:08:10;;;;;;;46.50;37.53;;;6.60;99.90;;;;;;6276984;28;20458;-66
2021/10/29 01:11:14;;;;;;;49.23;40.00;;;6.60;99.90;;;;;;6277828;28;20457;-65
2021/10/29 01:14:17;;;;;;;45.00;38.23;;;6.60;99.90;;;;;;6277760;28;20922;-66
2021/10/29 01:17:21;;;;;;;46.73;40.50;;;6.50;99.90;;;;;;6279315;28;20442;-66
2021/10/29 01:20:26;;;;;;;50.10;39.07;;;6.50;99.90;;;;;;6279372;28;20454;-66
2021/10/29 01:23:29;;;;;;;46.27;40.23;;;6.50;99.90;;;;;;6279186;28;20469;-66
2021/10/29 01:26:33;;;;;;;51.00;40.60;;;6.40;99.90;;;;;;6279034;28;20473;-66
2021/10/29 01:29:36;;;;;;;50.07;37.90;;;6.40;99.90;;;;;;6278667;28;20485;-66
2021/10/29 01:32:40;;;;;;;47.43;38.90;;;6.40;99.90;;;;;;6278854;28;20476;-66
2021/10/29 01:35:45;;;;;;;47.23;38.17;;;6.40;99.90;;;;;;6278790;28;20465;-66
2021/10/29 01:38:52;;;;;;;46.73;39.13;;;6.40;99.90;;;;;;6278434;28;20848;-65
2021/10/29 01:41:55;;;;;;;44.87;36.30;;;6.40;99.90;;;;;;6278285;28;20469;-66
2021/10/29 01:44:58;;;;;;;51.03;36.47;;;6.40;99.90;;;;;;6278485;28;20474;-66
2021/10/29 01:48:02;;;;;;;49.17;39.80;;;6.30;99.90;;;;;;6278169;28;20477;-66
2021/10/29 01:51:06;;;;;;;44.43;38.80;;;6.20;99.90;;;;;;6278542;28;20462;-66
2021/10/29 01:54:09;;;;;;;50.70;39.93;;;6.30;99.90;;;;;;6278134;28;20962;-65
2021/10/29 01:57:13;;;;;;;45.80;37.70;;;6.20;99.90;;;;;;6277941;28;20470;-65
2021/10/29 02:00:16;;;;;;;40.23;35.63;;;6.20;99.90;;;;;;6277755;28;20478;-65
2021/10/29 02:03:19;;;;;;;49.70;39.20;;;6.20;99.90;;;;;;6276870;28;20985;-65
2021/10/29 02:06:24;;;;;;;48.53;39.20;;;6.10;99.90;;;;;;6277654;28;20474;-65
2021/10/29 02:09:31;;;;;;;45.63;37.70;;;6.10;99.90;;;;;;6277606;28;20482;-65
2021/10/29 02:12:34;;;;;;;47.87;38.73;;;6.00;99.90;;;;;;6277779;28;20486;-65
2021/10/29 02:15:37;;;;;;;48.57;39.17;;;5.90;99.90;;;;;;6277498;28;20784;-66
2021/10/29 02:18:40;;;;;;;48.17;40.63;;;5.80;99.90;;;;;;6277281;28;20488;-66
2021/10/29 02:21:45;;;;;;;45.77;39.93;;;5.80;99.90;;;;;;6277433;28;20473;-66
2021/10/29 02:24:49;;;;;;;48.17;38.30;;;5.70;99.90;;;;;;6267915;28;20497;-66
2021/10/29 02:27:52;;;;;;;46.53;37.30;;;5.80;99.90;;;;;;6277261;28;20490;-66
2021/10/29 02:30:55;;;;;;;44.30;38.10;;;5.80;99.90;;;;;;6276679;28;20493;-66
2021/10/29 02:33:59;;;;;;;49.40;37.60;;;5.80;99.90;;;;;;6277386;28;20489;-66
2021/10/29 02:37:04;;;;;;;43.60;37.50;;;5.80;99.90;;;;;;6277487;28;20466;-66
2021/10/29 02:40:09;;;;;;;46.83;38.67;;;5.80;99.90;;;;;;6276888;28;20528;-66
2021/10/29 02:43:12;;;;;;;43.93;36.60;;;5.80;99.90;;;;;;6276850;28;20482;-66
2021/10/29 02:46:15;;;;;;;43.50;36.53;;;5.70;99.90;;;;;;6276500;28;20502;-66
2021/10/29 02:49:18;;;;;;;47.63;37.00;;;5.70;99.90;;;;;;6276579;28;20498;-66
2021/10/29 02:52:23;;;;;;;49.63;38.30;;;5.70;99.90;;;;;;6276595;28;20512;-66
2021/10/29 02:55:26;;;;;;;45.50;37.43;;;5.60;99.90;;;;;;6276435;28;20467;-66
2021/10/29 02:58:31;;;;;;;48.73;38.50;;;5.60;99.90;;;;;;6276138;28;20539;-66
2021/10/29 03:01:35;;;;;;;44.97;36.23;;;5.50;99.90;;;;;;6276423;28;20470;-66
2021/10/29 03:04:39;;;;;;;46.97;37.90;;;5.50;99.90;;;;;;6276627;28;20517;-66
2021/10/29 03:07:44;;;;;;;43.80;36.80;;;5.50;99.90;;;;;;6276630;28;20784;-66
2021/10/29 03:10:47;;;;;;;46.23;38.03;;;5.50;99.90;;;;;;6276091;28;20493;-66
2021/10/29 03:13:50;;;;;;;45.83;37.30;;;5.40;99.90;;;;;;6275189;28;20477;-65
2021/10/29 03:16:53;;;;;;;48.37;38.00;;;5.50;99.90;;;;;;6275980;28;20507;-65
2021/10/29 03:19:56;;;;;;;45.83;37.83;;;5.40;99.90;;;;;;6276060;28;20470;-66
2021/10/29 03:23:01;;;;;;;47.20;36.93;;;5.40;99.90;;;;;;6275951;28;20474;-66
2021/10/29 03:26:04;;;;;;;44.57;36.33;;;5.40;99.90;;;;;;6275567;28;20497;-66
2021/10/29 03:29:07;;;;;;;43.13;35.07;;;5.40;99.90;;;;;;6273664;28;20480;-66
2021/10/29 03:32:11;;;;;;;49.23;37.97;;;5.40;99.90;;;;;;6276233;28;20917;-65
2021/10/29 03:35:14;;;;;;;45.97;37.90;;;5.40;99.90;;;;;;6276037;28;20453;-65
2021/10/29 03:41:47;;;;;;;47.70;37.50;;;5.30;99.90;;;;;;6273633;28;20765;-65
2021/10/29 03:44:55;;;;;;;40.70;34.40;;;5.30;99.90;;;;;;6275204;28;20481;-66
2021/10/29 03:48:00;;;;;;;48.80;37.90;;;5.20;99.90;;;;;;6275718;28;20482;-65
2021/10/29 03:51:09;;;;;;;44.10;37.27;;;5.20;99.90;;;;;;6275817;28;20466;-65
2021/10/29 03:54:16;;;;;;;47.30;37.07;;;5.20;99.90;;;;;;6275878;28;20470;-65
2021/10/29 03:57:24;;;;;;;45.20;34.60;;;5.10;99.90;;;;;;6275804;28;20463;-65
2021/10/29 04:00:29;;;;;;;43.00;34.47;;;5.10;99.90;;;;;;6275038;28;20485;-66
2021/10/29 04:03:32;;;;;;;46.60;35.03;;;5.00;99.90;;;;;;6275065;28;20482;-66
2021/10/29 04:06:36;;;;;;;47.07;36.80;;;5.00;99.90;;;;;;6274793;28;20466;-66
2021/10/29 04:09:40;;;;;;;44.97;36.17;;;5.00;99.90;;;;;;6274749;28;20487;-66
2021/10/29 04:12:43;;;;;;;42.03;35.67;;;5.00;99.90;;;;;;6274762;28;20478;-66
2021/10/29 04:15:46;;;;;;;44.63;34.70;;;4.90;99.90;;;;;;6274769;28;20481;-67
2021/10/29 04:18:50;;;;;;;47.43;35.00;;;4.90;99.90;;;;;;6274645;28;20478;-66
2021/10/29 04:21:53;;;;;;;42.37;33.77;;;4.90;99.90;;;;;;6275203;28;20497;-66
2021/10/29 04:24:57;;;;;;;87.07;56.37;;;4.90;99.90;;;;;;6274375;28;20478;-66
2021/10/29 04:28:05;;;;;;;81.73;51.27;;;4.90;99.90;;;;;;6275142;28;20496;-67
2021/10/29 04:31:15;;;;;;;49.70;35.70;;;4.80;99.90;;;;;;6270705;28;20958;-66
2021/10/29 04:34:19;;;;;;;46.23;36.07;;;4.80;99.90;;;;;;6275271;28;21002;-66
2021/10/29 04:37:23;;;;;;;43.30;34.33;;;4.70;99.90;;;;;;6275095;28;20473;-66
2021/10/29 04:40:27;;;;;;;41.67;32.97;;;4.70;99.90;;;;;;6274613;28;20478;-66
2021/10/29 04:43:30;;;;;;;41.50;32.97;;;4.60;99.90;;;;;;6274849;28;20485;-66
2021/10/29 04:46:34;;;;;;;43.70;33.53;;;4.60;99.90;;;;;;6274583;28;20481;-66
2021/10/29 04:49:37;;;;;;;45.43;35.43;;;4.70;99.90;;;;;;6274178;28;20996;-67
2021/10/29 04:52:41;;;;;;;38.30;34.10;;;4.70;99.90;;;;;;6275551;28;20501;-67
2021/10/29 04:55:46;;;;;;;42.73;33.67;;;4.60;99.90;;;;;;6276263;28;20478;-66
2021/10/29 04:58:50;;;;;;;40.13;34.47;;;4.60;99.90;;;;;;6275359;28;20478;-66
2021/10/29 05:01:53;;;;;;;38.50;34.30;;;4.50;99.90;;;;;;6274242;28;20493;-66
2021/10/29 05:04:56;;;;;;;45.57;34.80;;;4.50;99.90;;;;;;6274464;28;20493;-65
2021/10/29 05:08:00;;;;;;;44.03;35.07;;;4.40;99.90;;;;;;6273901;28;20461;-65
2021/10/29 05:11:04;;;;;;;41.43;32.97;;;4.30;99.90;;;;;;6274104;28;20968;-65
2021/10/29 05:14:12;;;;;;;48.33;35.67;;;4.30;99.90;;;;;;6273352;28;20970;-65
2021/10/29 05:17:15;;;;;;;41.40;32.03;;;4.30;99.90;;;;;;6274951;28;20437;-65
2021/10/29 05:20:19;;;;;;;40.30;35.17;;;4.40;99.90;;;;;;6273884;28;20946;-65
2021/10/29 05:23:22;;;;;;;39.10;32.80;;;4.30;99.90;;;;;;6274355;28;20797;-66
2021/10/29 05:26:27;;;;;;;41.60;32.20;;;4.30;99.90;;;;;;6274878;28;20486;-66
2021/10/29 05:29:30;;;;;;;43.80;34.27;;;4.30;99.90;;;;;;6273787;28;20478;-65
2021/10/29 05:32:34;;;;;;;43.47;33.03;;;4.40;99.90;;;;;;6274228;28;20466;-66
2021/10/29 05:35:37;;;;;;;45.67;35.20;;;4.50;99.90;;;;;;6264801;28;20474;-67
2021/10/29 05:38:40;;;;;;;41.07;34.50;;;4.60;99.90;;;;;;6276963;28;20476;-65
2021/10/29 05:41:48;;;;;;;38.00;31.47;;;4.60;99.90;;;;;;6278577;28;20473;-64
2021/10/29 05:44:52;;;;;;;38.40;30.83;;;4.80;99.90;;;;;;6278970;28;20474;-65
2021/10/29 05:48:00;;;;;;;40.80;33.57;;;4.90;99.90;;;;;;6278989;28;20971;-65
2021/10/29 05:51:09;;;;;;;40.00;32.50;;;4.90;99.90;;;;;;6279213;28;20478;-66
2021/10/29 05:54:24;;;;;;;41.00;33.03;;;5.00;99.90;;;;;;6278715;28;21272;-66
2021/10/29 05:57:29;;;;;;;40.87;32.50;;;5.10;99.90;;;;;;6278654;28;20466;-66
2021/10/29 06:00:33;;;;;;;43.80;34.63;;;5.20;99.90;;;;;;6278276;28;20532;-65
2021/10/29 06:03:36;;;;;;;40.60;32.30;;;5.10;99.90;;;;;;6278325;28;20477;-65
2021/10/29 06:06:40;;;;;;;37.20;31.30;;;5.20;99.90;;;;;;6277933;28;20993;-65
2021/10/29 06:09:43;;;;;;;42.17;33.70;;;5.20;99.90;;;;;;6279746;28;20489;-65
2021/10/29 06:12:47;;;;;;;40.30;32.60;;;5.30;99.90;;;;;;6277173;28;20938;-66
2021/10/29 06:15:50;;;;;;;38.47;31.17;;;5.40;99.90;;;;;;6278035;28;20470;-66
2021/10/29 06:18:54;;;;;;;37.20;31.73;;;5.50;99.90;;;;;;6278461;28;20478;-65
2021/10/29 06:22:00;;;;;;;38.83;30.90;;;5.50;99.90;;;;;;6278360;28;20818;-65
2021/10/29 06:25:10;;;;;;;39.10;30.50;;;5.60;99.90;;;;;;6279184;28;20476;-65
2021/10/29 06:28:20;;;;;;;37.80;31.80;;;5.70;99.90;;;;;;6278177;28;20962;-65
2021/10/29 06:31:23;;;;;;;40.70;32.27;;;5.80;99.90;;;;;;6278245;28;20787;-65
2021/10/29 06:34:27;;;;;;;39.30;31.13;;;5.90;99.90;;;;;;6277824;28;20877;-65
2021/10/29 06:37:30;;;;;;;39.73;31.77;;;6.00;99.90;;;;;;6277572;28;20473;-65
2021/10/29 06:40:39;;;;;;;37.97;32.00;;;6.10;99.90;;;;;;6268261;28;20492;-65
2021/10/29 06:43:48;;;;;;;39.30;33.10;;;6.20;99.90;;;;;;6277133;28;20493;-65
2021/10/29 06:47:19;;;;;;;47.13;33.63;;;6.30;99.90;;;;;;6277233;28;20482;-65
2021/10/29 07:00:24;;;;;;;45.53;32.37;;;6.50;99.90;;;;;;6276526;28;20969;-65
2021/10/29 07:40:18;;;;;;;36.63;30.30;;;9.80;99.00;;;;;;6275828;28;20486;-65
2021/10/29 07:43:28;;;;;;;34.40;29.30;;;9.90;98.90;;;;;;6266131;28;20820;-66
2021/10/29 07:46:31;;;;;;;40.37;30.00;;;10.00;98.10;;;;;;6275381;28;20539;-65
2021/10/29 07:49:36;;;;;;;34.33;28.90;;;10.10;97.80;;;;;;6275169;28;20590;-65
2021/10/29 07:52:45;;;;;;;38.40;28.90;;;10.20;97.50;;;;;;6275429;28;20479;-65
2021/10/29 07:55:49;;;;;;;41.37;29.80;;;10.40;97.40;;;;;;6275452;28;20465;-65
2021/10/29 07:58:52;;;;;;;34.83;28.93;;;10.60;97.30;;;;;;6275449;28;20474;-65
2021/10/29 08:01:56;;;;;;;38.87;28.87;;;10.70;97.00;;;;;;6274462;28;20497;-65
2021/10/29 08:05:01;;;;;;;32.83;28.80;;;10.80;97.00;;;;;;6275493;28;20547;-65
2021/10/29 08:08:05;;;;;;;32.80;25.47;;;11.00;97.00;;;;;;6275229;28;20958;-65
2021/10/29 08:11:08;;;;;;;32.90;23.40;;;11.00;97.20;;;;;;6275646;28;20461;-65
2021/10/29 08:14:11;;;;;;;34.37;24.83;;;11.00;97.60;;;;;;6275532;28;20493;-64
2021/10/29 08:17:16;;;;;;;32.27;26.53;;;11.10;98.10;;;;;;6275801;28;20433;-64
2021/10/29 08:20:21;;;;;;;36.03;26.50;;;11.00;98.20;;;;;;6275290;28;20470;-65
2021/10/29 08:23:24;;;;;;;31.80;25.50;;;11.00;98.50;;;;;;6275873;28;20418;-65
2021/10/29 08:26:27;;;;;;;33.80;25.53;;;11.10;98.30;;;;;;6275264;28;22279;-65
2021/10/29 08:29:31;;;;;;;33.07;24.93;;;11.30;98.40;;;;;;6275741;28;20780;-66
2021/10/29 08:32:35;;;;;;;34.03;25.60;;;11.50;98.20;;;;;;6276359;28;20462;-65
2021/10/29 08:35:40;;;;;;;30.67;23.73;;;11.60;97.90;;;;;;6278940;28;20462;-66
2021/10/29 08:38:44;;;;;;;31.47;25.63;;;11.70;97.80;;;;;;6279951;28;20478;-66
2021/10/29 08:42:03;;;;;;;36.07;26.63;;;11.80;97.40;;;;;;6279756;28;20471;-65
2021/10/29 08:45:08;;;;;;;37.10;26.70;;;12.10;97.10;;;;;;6270140;28;20470;-66
2021/10/29 08:48:13;;;;;;;32.93;25.87;;;12.50;96.70;;;;;;6279040;28;20472;-66
2021/10/29 08:51:18;;;;;;;35.53;27.63;;;13.80;96.10;;;;;;6278181;28;20477;-66
2021/10/29 08:54:23;;;;;;;35.70;25.57;;;16.30;92.20;;;;;;6275005;28;20480;-66
2021/10/29 08:57:28;;;;;;;28.73;25.07;;;19.20;80.80;;;;;;6275139;28;20806;-66
2021/10/29 09:00:37;;;;;;;28.60;25.60;;;22.10;66.40;;;;;;6274912;28;20231;-68
2021/10/29 10:16:09;;;;;;;31.73;29.08;;;35.10;26.50;;;;;;6173143;28;20233;-67
2021/10/29 11:30:13;;;;;;;35.15;32.35;;;38.90;20.50;;;;;;6213909;28;20314;-63
2021/10/29 11:33:16;;;;;;;34.33;31.48;;;38.60;20.80;;;;;;6295904;28;20279;-64
2021/10/29 11:36:21;;;;;;;35.25;32.22;;;37.90;21.10;;;;;;6311388;28;20247;-65
2021/10/29 11:39:26;;;;;;;32.58;29.60;;;38.70;21.10;;;;;;6325072;28;20240;-67
2021/10/29 11:42:29;;;;;;;34.15;31.55;;;39.50;20.60;;;;;;6325466;28;20233;-66
2021/10/29 11:45:36;;;;;;;34.92;32.22;;;39.30;20.40;;;;;;6325100;28;20573;-67
2021/10/29 11:48:45;;;;;;;34.05;31.35;;;39.40;20.20;;;;;;6324686;28;20729;-66
2021/10/29 11:51:49;;;;;;;33.15;30.67;;;38.80;20.50;;;;;;6325255;28;20236;-66
2021/10/29 11:54:54;;;;;;;34.28;31.67;;;38.70;20.60;;;;;;6325023;28;20308;-66
2021/10/29 11:58:04;;;;;;;33.90;31.33;;;39.10;20.70;;;;;;6316002;28;20602;-67
2021/10/29 12:07:48;;;;;;;34.35;31.65;;;37.90;21.10;;;;;;6324735;28;20230;-66
2021/10/29 12:10:59;;;;;;;34.65;31.92;;;38.20;21.20;;;;;;6330145;27;20235;-66
2021/10/29 12:14:03;;;;;;;35.58;32.88;;;37.20;21.40;;;;;;6350231;28;20240;-68
2021/10/29 12:17:10;;;;;;;34.30;31.60;;;36.00;22.60;;;;;;6349793;28;20240;-67
2021/10/29 12:20:17;;;;;;;33.85;30.88;;;37.00;22.20;;;;;;6350555;28;20213;-66
2021/10/29 12:23:24;;;;;;;34.08;31.35;;;37.30;21.70;;;;;;6349938;28;20188;-66
2021/10/29 12:26:29;;;;;;;31.88;29.35;;;37.40;21.80;;;;;;6350141;28;20196;-65
2021/10/29 12:29:34;;;;;;;34.67;31.88;;;37.20;21.90;;;;;;6349568;28;20232;-65
2021/10/29 12:53:17;;;;;;;33.75;30.85;;;33.20;24.80;;;;;;6353161;28;20251;-66
2021/10/29 13:03:10;;;;;;;37.05;33.95;;;33.90;24.10;;;;;;6340822;28;20229;-66
2021/10/29 13:06:18;;;;;;;31.95;29.35;;;33.80;24.40;;;;;;6328116;28;20244;-65
2021/10/29 13:09:23;;;;;;;33.63;30.70;;;33.80;24.60;;;;;;6327195;28;20237;-64
2021/10/29 13:12:29;;;;;;;34.05;31.25;;;33.60;24.60;;;;;;6345546;28;20228;-64
2021/10/29 13:15:33;;;;;;;34.03;31.33;;;33.40;24.70;;;;;;6352638;28;20575;-67
2021/10/29 13:18:52;;;;;;;34.42;31.27;;;32.00;25.90;;;;;;6332095;28;20653;-66
2021/10/29 13:25:50;;;;;;;36.95;33.78;;;32.90;25.50;;;;;;6328520;28;20723;-66
2021/10/29 13:28:51;;;;;;;36.10;33.08;;;32.00;26.10;;;;;;6327338;28;20222;-66
2021/10/29 13:56:03;;;;;;;34.60;31.40;;;22.90;37.70;;;;;;6311560;28;20223;-66
2021/10/29 13:59:28;;;;;;;30.47;27.67;;;21.10;41.50;;;;;;6325731;28;20544;-66
2021/10/29 14:16:53;;;;;;;30.77;27.70;;;16.20;53.50;;;;;;6327170;28;20782;-66
2021/10/29 14:30:03;;;;;;;33.43;29.67;;;15.10;59.30;;;;;;6327164;28;20953;-65
2021/10/29 14:33:10;;;;;;;33.37;29.90;;;15.00;60.50;;;;;;6327083;28;20464;-65
2021/10/29 14:36:13;;;;;;;39.63;29.53;;;14.60;62.40;;;;;;6327307;28;20788;-66
2021/10/29 14:39:23;;;;;;;35.83;30.33;;;14.60;63.80;;;;;;6327260;28;20479;-66
2021/10/29 14:42:31;;;;;;;37.20;30.63;;;14.70;65.50;;;;;;6327161;28;20468;-66
2021/10/29 14:45:41;;;;;;;37.83;33.10;;;14.40;66.60;;;;;;6327062;28;20464;-65
2021/10/29 14:48:51;;;;;;;35.10;31.47;;;13.80;69.90;;;;;;6326832;28;20518;-65
2021/10/29 14:52:14;;;;;;;34.73;30.97;;;13.70;72.40;;;;;;6326502;28;20522;-65
2021/10/29 15:25:37;;;;;;;38.00;33.90;;;12.10;92.10;;;;;;6325691;28;20469;-67
2021/10/29 15:28:47;;;;;;;41.87;34.70;;;12.20;92.50;;;;;;6325679;28;20472;-67
2021/10/29 15:42:21;;;;;;;41.07;36.57;;;12.00;94.10;;;;;;6262094;28;20518;-66
2021/10/29 15:45:33;;;;;;;43.03;35.33;;;11.80;94.50;;;;;;6249722;28;20467;-67
2021/10/29 15:48:47;;;;;;;44.57;35.87;;;11.80;94.80;;;;;;6300231;28;20488;-67
2021/10/29 15:51:55;;;;;;;43.50;35.57;;;11.80;95.00;;;;;;6300565;28;20481;-66
2021/10/29 15:55:03;;;;;;;42.30;35.50;;;11.80;95.00;;;;;;6300119;28;20800;-67
2021/10/29 15:58:25;;;;;;;40.07;34.83;;;11.70;95.50;;;;;;6300045;28;20825;-67
2021/10/29 16:01:36;;;;;;;44.93;38.57;;;11.70;95.60;;;;;;6299932;28;20461;-67
2021/10/29 16:18:03;;;;;;;38.33;33.70;;;11.90;95.90;;;;;;6324326;28;20473;-65
2021/10/29 16:21:06;;;;;;;45.93;36.77;;;12.00;96.00;;;;;;6323713;28;20533;-66
2021/10/29 16:24:11;;;;;;;41.67;33.90;;;11.90;95.90;;;;;;6324463;28;20794;-66
2021/10/29 16:27:15;;;;;;;41.50;36.03;;;11.90;95.90;;;;;;6324645;28;20475;-66
2021/10/29 16:30:22;;;;;;;43.07;36.80;;;12.00;95.80;;;;;;6323878;28;20479;-65
2021/10/29 16:33:28;;;;;;;39.60;33.97;;;12.00;95.70;;;;;;6324359;28;20471;-65
2021/10/29 16:36:31;;;;;;;42.07;34.50;;;12.00;95.60;;;;;;6323843;28;20468;-65
2021/10/29 16:39:36;;;;;;;40.90;33.77;;;11.90;95.70;;;;;;6324405;28;20483;-65
2021/10/29 16:42:39;;;;;;;39.23;34.17;;;11.90;96.20;;;;;;6302115;28;20469;-65
2021/10/29 16:45:44;;;;;;;39.03;34.30;;;11.80;95.90;;;;;;6299984;28;20495;-67
2021/10/29 16:48:47;;;;;;;37.60;33.60;;;11.80;96.10;;;;;;6311903;28;20473;-67
2021/10/29 16:51:50;;;;;;;51.27;40.40;;;11.80;96.10;;;;;;6324004;28;20786;-65
2021/10/29 16:54:55;;;;;;;43.90;37.00;;;11.80;96.20;;;;;;6324575;28;20467;-66
2021/10/29 16:57:58;;;;;;;45.07;38.50;;;11.70;96.30;;;;;;6324570;28;20963;-67
2021/10/29 17:01:01;;;;;;;42.50;37.70;;;11.80;96.30;;;;;;6323986;28;20472;-68
2021/10/29 17:04:05;;;;;;;42.83;37.37;;;11.70;96.40;;;;;;6323822;28;20803;-67
2021/10/29 17:07:08;;;;;;;40.73;34.30;;;11.70;96.40;;;;;;6323642;28;20487;-66
2021/10/29 17:10:16;;;;;;;39.60;35.07;;;11.70;96.60;;;;;;6324912;28;20488;-67
2021/10/29 17:13:19;;;;;;;37.83;33.77;;;11.80;96.70;;;;;;6299082;28;20472;-67
2021/10/29 17:16:23;;;;;;;45.57;36.60;;;11.80;96.70;;;;;;6298487;28;20472;-68
2021/10/29 17:19:26;;;;;;;45.30;37.07;;;11.80;96.60;;;;;;6298798;28;20476;-66
2021/10/29 17:22:30;;;;;;;41.30;36.87;;;11.80;96.50;;;;;;6298793;28;21014;-68
2021/10/29 17:25:35;;;;;;;39.20;34.63;;;11.80;96.40;;;;;;6312035;28;20554;-67
2021/10/29 17:28:38;;;;;;;41.80;37.27;;;11.80;96.40;;;;;;6323800;28;20963;-66
2021/10/29 17:31:41;;;;;;;45.27;35.40;;;11.80;96.40;;;;;;6323574;28;20805;-67
2021/10/29 17:34:45;;;;;;;43.90;37.13;;;11.80;96.40;;;;;;6326820;28;20549;-66
2021/10/29 17:37:49;;;;;;;41.67;36.77;;;11.80;96.40;;;;;;6328032;28;20468;-65
2021/10/29 17:40:54;;;;;;;41.13;36.10;;;11.80;96.40;;;;;;6328258;28;20479;-65
2021/10/29 17:43:57;;;;;;;41.37;36.47;;;11.70;96.60;;;;;;6328394;28;20472;-65
2021/10/29 17:47:02;;;;;;;44.23;39.53;;;11.70;96.60;;;;;;6328061;28;20475;-67
2021/10/29 17:50:06;;;;;;;47.50;39.87;;;11.70;96.70;;;;;;6328278;28;20820;-67
2021/10/29 17:53:10;;;;;;;48.00;38.00;;;11.70;96.70;;;;;;6326549;28;20841;-66
2021/10/29 17:56:14;;;;;;;45.30;38.53;;;11.80;96.70;;;;;;6326323;28;20483;-66
2021/10/29 17:59:17;;;;;;;44.93;38.17;;;11.80;96.70;;;;;;6325817;28;20476;-67
2021/10/29 18:02:23;;;;;;;45.80;40.87;;;11.70;96.70;;;;;;6326203;28;20452;-67
2021/10/29 18:05:27;;;;;;;44.93;40.10;;;11.70;96.90;;;;;;6326202;28;20912;-67
2021/10/29 18:08:39;;;;;;;46.60;38.17;;;11.60;97.00;;;;;;6339029;28;20471;-66
2021/10/29 18:11:43;;;;;;;42.80;37.33;;;11.60;97.10;;;;;;6340480;28;20951;-66
2021/10/29 18:14:46;;;;;;;45.97;38.43;;;11.60;97.10;;;;;;6326196;28;20465;-66
2021/10/29 18:17:49;;;;;;;41.07;36.67;;;11.50;97.30;;;;;;6326323;28;20467;-67
2021/10/29 18:20:58;;;;;;;48.17;39.43;;;11.50;97.70;;;;;;6321682;28;20479;-67
2021/10/29 18:24:02;;;;;;;47.07;38.57;;;11.50;97.40;;;;;;6327690;28;20788;-67
2021/10/29 18:27:08;;;;;;;46.90;39.77;;;11.50;97.50;;;;;;6327203;28;20845;-67
2021/10/29 18:30:15;;;;;;;44.27;39.27;;;11.50;97.80;;;;;;6327032;28;20468;-67
2021/10/29 18:33:18;;;;;;;46.23;39.70;;;11.50;97.90;;;;;;6327424;28;20476;-66
2021/10/29 18:36:21;;;;;;;44.00;36.67;;;11.40;97.90;;;;;;6326913;28;20465;-65
2021/10/29 18:39:24;;;;;;;45.20;38.50;;;11.50;98.00;;;;;;6326806;28;20793;-64
2021/10/29 18:42:29;;;;;;;42.57;37.83;;;11.40;97.90;;;;;;6326774;28;20486;-66
2021/10/29 18:45:34;;;;;;;48.20;39.47;;;11.40;98.00;;;;;;6326465;28;20468;-66
2021/10/29 18:48:37;;;;;;;48.70;39.60;;;11.40;98.10;;;;;;6326422;28;20840;-64
2021/10/29 18:51:41;;;;;;;46.77;39.57;;;11.50;98.20;;;;;;6326653;28;20468;-65
2021/10/29 18:54:44;;;;;;;42.63;38.03;;;11.50;98.10;;;;;;6326058;28;20845;-66
2021/10/29 18:57:48;;;;;;;44.93;40.00;;;11.50;98.10;;;;;;6326250;28;20968;-67
2021/10/29 19:00:52;;;;;;;40.90;36.50;;;11.50;98.10;;;;;;6326241;28;20483;-66
2021/10/29 19:03:55;;;;;;;45.50;39.57;;;11.50;98.10;;;;;;6325927;28;20477;-66
2021/10/29 19:07:02;;;;;;;43.73;38.77;;;11.60;98.00;;;;;;6324873;28;20475;-66
2021/10/29 19:10:07;;;;;;;42.63;37.97;;;11.60;98.10;;;;;;6326260;28;20476;-65
2021/10/29 19:13:12;;;;;;;44.60;39.30;;;11.60;98.10;;;;;;6350547;28;20471;-67
2021/10/29 19:16:15;;;;;;;43.87;39.10;;;11.60;98.00;;;;;;6327021;28;20469;-66
2021/10/29 19:19:19;;;;;;;45.03;38.97;;;11.60;98.20;;;;;;6325447;28;21002;-66
2021/10/29 19:22:24;;;;;;;44.97;37.23;;;11.60;98.10;;;;;;6325289;28;20460;-66
2021/10/29 19:25:28;;;;;;;51.67;41.70;;;11.50;98.10;;;;;;6325360;28;20571;-65
2021/10/29 19:28:32;;;;;;;51.57;41.87;;;11.50;98.30;;;;;;6315631;28;20476;-66
2021/10/29 19:31:35;;;;;;;44.30;38.70;;;11.40;98.40;;;;;;6324978;27;20507;-66
2021/10/29 19:34:43;;;;;;;43.13;38.03;;;11.50;98.50;;;;;;6325536;28;20483;-66
2021/10/29 19:37:51;;;;;;;50.77;41.57;;;11.50;98.50;;;;;;6325317;28;20857;-66
2021/10/29 19:40:55;;;;;;;44.67;39.80;;;11.50;98.40;;;;;;6325179;28;20468;-66
2021/10/29 19:44:00;;;;;;;40.07;35.70;;;11.50;98.50;;;;;;6325031;28;20471;-66
2021/10/29 19:47:04;;;;;;;47.90;42.00;;;11.50;98.50;;;;;;6325311;28;20475;-67
2021/10/29 19:50:07;;;;;;;45.00;37.10;;;11.50;98.50;;;;;;6325375;28;20480;-66
2021/10/29 19:53:11;;;;;;;47.10;39.80;;;11.60;98.60;;;;;;6325401;27;20468;-66
2021/10/29 19:56:15;;;;;;;48.10;40.30;;;11.60;98.60;;;;;;6324881;28;20472;-66
2021/10/29 19:59:19;;;;;;;45.77;38.67;;;11.60;98.60;;;;;;6324532;27;20468;-66
2021/10/29 20:02:22;;;;;;;44.93;38.70;;;11.60;98.70;;;;;;6324861;28;20448;-66
2021/10/29 20:05:26;;;;;;;42.47;37.83;;;11.60;98.80;;;;;;6320967;28;20472;-66
2021/10/29 20:08:29;;;;;;;51.87;39.43;;;11.60;98.80;;;;;;6325066;28;20502;-65
2021/10/29 20:11:33;;;;;;;41.97;37.43;;;11.60;98.70;;;;;;6328807;28;20548;-65
2021/10/29 20:14:37;;;;;;;42.03;37.07;;;11.60;98.80;;;;;;6326137;28;20460;-64
2021/10/29 20:17:42;;;;;;;47.53;40.20;;;11.60;98.80;;;;;;6325704;28;20464;-65
2021/10/29 20:20:45;;;;;;;45.43;37.47;;;11.60;98.80;;;;;;6324738;28;20796;-65
2021/10/29 20:23:50;;;;;;;44.37;38.67;;;11.60;98.90;;;;;;6324852;28;20866;-65
2021/10/29 20:26:53;;;;;;;46.13;38.90;;;11.60;98.90;;;;;;6325086;28;20479;-66
2021/10/29 20:29:58;;;;;;;48.27;42.00;;;11.50;98.90;;;;;;6320036;28;20862;-65
2021/10/29 20:33:01;;;;;;;47.93;42.43;;;11.40;99.00;;;;;;6324333;28;20823;-65
2021/10/29 20:36:04;;;;;;;50.20;40.43;;;11.40;99.30;;;;;;6324652;28;20483;-65
2021/10/29 20:39:09;;;;;;;50.43;41.67;;;11.40;99.40;;;;;;6324274;28;20498;-65
2021/10/29 20:42:13;;;;;;;44.77;39.87;;;11.40;99.40;;;;;;6306745;28;20465;-65
2021/10/29 20:45:21;;;;;;;46.50;41.40;;;11.50;99.40;;;;;;6299588;28;21104;-65
2021/10/29 20:48:25;;;;;;;51.50;42.37;;;11.50;99.40;;;;;;6298924;28;20968;-65
2021/10/29 20:51:29;;;;;;;46.90;41.20;;;11.40;99.40;;;;;;6299142;28;20483;-66
2021/10/29 20:54:32;;;;;;;51.47;43.73;;;11.40;99.40;;;;;;6299386;28;20488;-66
2021/10/29 20:57:35;;;;;;;48.17;41.00;;;11.40;99.40;;;;;;6298980;28;20480;-66
2021/10/29 21:00:40;;;;;;;47.67;41.00;;;11.40;99.40;;;;;;6299439;28;20468;-66
2021/10/29 21:03:43;;;;;;;52.13;41.77;;;11.40;99.50;;;;;;6315599;28;20495;-66
2021/10/29 21:06:46;;;;;;;47.97;40.20;;;11.40;99.50;;;;;;6324236;28;20479;-66
2021/10/29 21:09:52;;;;;;;46.20;41.17;;;11.30;99.50;;;;;;6353273;28;20463;-64
2021/10/29 21:12:55;;;;;;;50.60;43.00;;;11.30;99.60;;;;;;6333345;28;20467;-65
2021/10/29 21:16:00;;;;;;;46.50;41.00;;;11.20;99.70;;;;;;6330498;28;20467;-64